createdAt,value
2018-05-23T00:00:58.247Z,1009.66
2018-05-23T00:01:58.240Z,1009.64
2018-05-23T00:02:58.242Z,1009.66
2018-05-23T00:03:58.296Z,1009.63
2018-05-23T00:04:58.231Z,1009.63
2018-05-23T00:05:58.226Z,1009.61
2018-05-23T00:06:58.229Z,1009.63
2018-05-23T00:07:58.215Z,1009.68
2018-05-23T00:08:58.213Z,1009.70
2018-05-23T00:09:58.206Z,1009.67
2018-05-23T00:10:58.204Z,1009.68
2018-05-23T00:11:58.205Z,1009.70
2018-05-23T00:12:58.200Z,1009.68
2018-05-23T00:13:58.194Z,1009.75
2018-05-23T00:14:58.189Z,1009.74
2018-05-23T00:15:58.188Z,1009.70
2018-05-23T00:16:58.178Z,1009.70
2018-05-23T00:17:58.174Z,1009.67
2018-05-23T00:18:58.173Z,1009.67
2018-05-23T00:19:58.171Z,1009.65
2018-05-23T00:20:58.163Z,1009.63
2018-05-23T00:21:58.160Z,1009.63
2018-05-23T00:22:58.153Z,1009.65
2018-05-23T00:23:58.149Z,1009.60
2018-05-23T00:24:58.142Z,1009.56
2018-05-23T00:25:58.147Z,1009.54
2018-05-23T00:26:58.139Z,1009.57
2018-05-23T00:27:58.134Z,1009.57
2018-05-23T00:28:58.131Z,1009.56
2018-05-23T00:29:58.123Z,1009.52
2018-05-23T00:30:58.123Z,1009.55
2018-05-23T00:31:58.135Z,1009.53
2018-05-23T00:32:58.111Z,1009.56
2018-05-23T00:33:58.108Z,1009.51
2018-05-23T00:34:58.103Z,1009.57
2018-05-23T00:35:58.100Z,1009.56
2018-05-23T00:36:58.095Z,1009.58
2018-05-23T00:37:58.090Z,1009.57
2018-05-23T00:38:58.095Z,1009.57
2018-05-23T00:39:58.091Z,1009.58
2018-05-23T00:40:58.079Z,1009.58
2018-05-23T00:41:58.085Z,1009.58
2018-05-23T00:42:58.072Z,1009.55
2018-05-23T00:43:58.071Z,1009.55
2018-05-23T00:44:58.062Z,1009.60
2018-05-23T00:45:58.058Z,1009.58
2018-05-23T00:46:58.137Z,1009.57
2018-05-23T00:47:58.052Z,1009.59
2018-05-23T00:48:58.052Z,1009.60
2018-05-23T00:49:58.045Z,1009.59
2018-05-23T00:50:58.038Z,1009.60
2018-05-23T00:51:58.035Z,1009.59
2018-05-23T00:52:58.031Z,1009.56
2018-05-23T00:53:58.029Z,1009.58
2018-05-23T00:54:58.024Z,1009.57
2018-05-23T00:55:58.018Z,1009.56
2018-05-23T00:56:58.010Z,1009.55
2018-05-23T00:57:58.011Z,1009.57
2018-05-23T00:58:58.002Z,1009.57
2018-05-23T00:59:58.026Z,1009.62
2018-05-23T01:00:58.000Z,1009.57
2018-05-23T01:01:57.994Z,1009.63
2018-05-23T01:02:57.990Z,1009.58
2018-05-23T01:03:57.986Z,1009.58
2018-05-23T01:04:57.980Z,1009.59
2018-05-23T01:05:57.977Z,1009.63
2018-05-23T01:06:57.970Z,1009.59
2018-05-23T01:07:57.970Z,1009.61
2018-05-23T01:08:57.965Z,1009.61
2018-05-23T01:09:57.960Z,1009.64
2018-05-23T01:10:57.956Z,1009.62
2018-05-23T01:11:57.953Z,1009.63
2018-05-23T01:12:57.950Z,1009.64
2018-05-23T01:13:57.940Z,1009.63
2018-05-23T01:14:57.938Z,1009.64
2018-05-23T01:15:57.933Z,1009.66
2018-05-23T01:16:57.924Z,1009.68
2018-05-23T01:17:57.926Z,1009.68
2018-05-23T01:18:57.917Z,1009.68
2018-05-23T01:19:57.913Z,1009.70
2018-05-23T01:20:57.910Z,1009.68
2018-05-23T01:21:57.915Z,1009.70
2018-05-23T01:22:57.905Z,1009.69
2018-05-23T01:23:57.901Z,1009.68
2018-05-23T01:24:57.900Z,1009.70
2018-05-23T01:25:57.891Z,1009.67
2018-05-23T01:26:57.884Z,1009.69
2018-05-23T01:27:57.878Z,1009.69
2018-05-23T01:28:57.878Z,1009.69
2018-05-23T01:29:57.873Z,1009.68
2018-05-23T01:30:57.872Z,1009.73
2018-05-23T01:31:57.862Z,1009.72
2018-05-23T01:32:57.857Z,1009.73
2018-05-23T01:33:57.852Z,1009.79
2018-05-23T01:34:57.854Z,1009.78
2018-05-23T01:35:57.848Z,1009.77
2018-05-23T01:36:57.845Z,1009.78
2018-05-23T01:37:57.841Z,1009.75
2018-05-23T01:38:57.833Z,1009.72
2018-05-23T01:39:57.838Z,1009.70
2018-05-23T01:40:57.826Z,1009.72
2018-05-23T01:41:57.824Z,1009.71
2018-05-23T01:42:57.820Z,1009.71
2018-05-23T01:43:57.815Z,1009.71
2018-05-23T01:44:57.811Z,1009.70
2018-05-23T01:45:57.804Z,1009.67
2018-05-23T01:46:57.803Z,1009.65
2018-05-23T01:47:57.796Z,1009.65
2018-05-23T01:48:57.788Z,1009.66
2018-05-23T01:49:57.787Z,1009.68
2018-05-23T01:50:57.787Z,1009.68
2018-05-23T01:51:57.781Z,1009.73
2018-05-23T01:52:57.771Z,1009.68
2018-05-23T01:53:57.766Z,1009.69
2018-05-23T01:54:57.767Z,1009.66
2018-05-23T01:55:57.767Z,1009.71
2018-05-23T01:56:57.758Z,1009.70
2018-05-23T01:57:57.775Z,1009.67
2018-05-23T01:58:57.750Z,1009.68
2018-05-23T01:59:57.744Z,1009.69
2018-05-23T02:00:57.741Z,1009.71
2018-05-23T02:01:57.735Z,1009.70
2018-05-23T02:02:57.735Z,1009.74
2018-05-23T02:03:57.728Z,1009.74
2018-05-23T02:04:57.723Z,1009.74
2018-05-23T02:05:57.719Z,1009.75
2018-05-23T02:06:57.713Z,1009.75
2018-05-23T02:07:57.711Z,1009.73
2018-05-23T02:08:57.706Z,1009.77
2018-05-23T02:09:57.703Z,1009.74
2018-05-23T02:10:57.704Z,1009.74
2018-05-23T02:11:57.694Z,1009.74
2018-05-23T02:12:57.688Z,1009.73
2018-05-23T02:13:57.682Z,1009.75
2018-05-23T02:14:57.682Z,1009.78
2018-05-23T02:15:57.673Z,1009.77
2018-05-23T02:16:57.675Z,1009.74
2018-05-23T02:17:57.667Z,1009.78
2018-05-23T02:18:57.664Z,1009.80
2018-05-23T02:19:57.654Z,1009.81
2018-05-23T02:20:57.650Z,1009.80
2018-05-23T02:21:57.650Z,1009.81
2018-05-23T02:22:57.672Z,1009.82
2018-05-23T02:23:57.650Z,1009.79
2018-05-23T02:24:57.637Z,1009.80
2018-05-23T02:25:57.635Z,1009.80
2018-05-23T02:26:57.627Z,1009.81
2018-05-23T02:27:57.629Z,1009.82
2018-05-23T02:28:57.617Z,1009.78
2018-05-23T02:29:57.611Z,1009.82
2018-05-23T02:30:57.617Z,1009.85
2018-05-23T02:31:57.604Z,1009.86
2018-05-23T02:32:57.603Z,1009.84
2018-05-23T02:33:57.596Z,1009.85
2018-05-23T02:34:57.601Z,1009.81
2018-05-23T02:35:57.589Z,1009.86
2018-05-23T02:36:57.585Z,1009.85
2018-05-23T02:37:57.582Z,1009.84
2018-05-23T02:38:57.577Z,1009.84
2018-05-23T02:39:57.574Z,1009.84
2018-05-23T02:40:57.566Z,1009.86
2018-05-23T02:41:57.564Z,1009.88
2018-05-23T02:42:57.562Z,1009.89
2018-05-23T02:43:57.554Z,1009.89
2018-05-23T02:44:57.553Z,1009.91
2018-05-23T02:45:57.551Z,1009.92
2018-05-23T02:46:57.545Z,1009.89
2018-05-23T02:47:57.537Z,1009.93
2018-05-23T02:48:57.529Z,1009.91
2018-05-23T02:49:57.532Z,1009.91
2018-05-23T02:50:57.523Z,1009.90
2018-05-23T02:51:57.521Z,1009.90
2018-05-23T02:52:57.519Z,1009.92
2018-05-23T02:53:57.512Z,1009.91
2018-05-23T02:54:57.503Z,1009.88
2018-05-23T02:55:57.500Z,1009.89
2018-05-23T02:56:57.495Z,1009.88
2018-05-23T02:57:57.489Z,1009.92
2018-05-23T02:58:57.489Z,1009.90
2018-05-23T02:59:57.486Z,1009.92
2018-05-23T03:00:57.480Z,1009.91
2018-05-23T03:01:57.475Z,1009.91
2018-05-23T03:02:57.494Z,1009.91
2018-05-23T03:03:57.468Z,1009.94
2018-05-23T03:04:57.462Z,1009.95
2018-05-23T03:05:57.457Z,1009.91
2018-05-23T03:06:57.454Z,1009.92
2018-05-23T03:07:57.447Z,1009.96
2018-05-23T03:08:57.445Z,1009.98
2018-05-23T03:09:57.440Z,1009.96
2018-05-23T03:10:57.445Z,1009.97
2018-05-23T03:11:57.433Z,1009.99
2018-05-23T03:12:57.428Z,1009.98
2018-05-23T03:13:57.423Z,1010.04
2018-05-23T03:14:57.420Z,1010.00
2018-05-23T03:15:57.411Z,1009.99
2018-05-23T03:16:57.406Z,1010.01
2018-05-23T03:17:57.405Z,1009.99
2018-05-23T03:18:57.401Z,1010.03
2018-05-23T03:19:57.401Z,1010.04
2018-05-23T03:20:57.393Z,1010.02
2018-05-23T03:21:57.420Z,1010.06
2018-05-23T03:22:57.387Z,1010.03
2018-05-23T03:23:57.377Z,1010.09
2018-05-23T03:24:57.377Z,1010.10
2018-05-23T03:25:57.372Z,1010.15
2018-05-23T03:26:57.368Z,1010.16
2018-05-23T03:27:57.365Z,1010.20
2018-05-23T03:28:57.377Z,1010.19
2018-05-23T03:29:57.353Z,1010.20
2018-05-23T03:30:57.348Z,1010.21
2018-05-23T03:31:57.344Z,1010.24
2018-05-23T03:32:57.354Z,1010.26
2018-05-23T03:33:57.341Z,1010.26
2018-05-23T03:34:57.333Z,1010.26
2018-05-23T03:35:57.327Z,1010.27
2018-05-23T03:36:57.321Z,1010.30
2018-05-23T03:37:57.375Z,1010.34
2018-05-23T03:38:57.316Z,1010.33
2018-05-23T03:39:57.309Z,1010.34
2018-05-23T03:40:57.307Z,1010.37
2018-05-23T03:41:57.300Z,1010.37
2018-05-23T03:42:57.297Z,1010.39
2018-05-23T03:43:57.290Z,1010.39
2018-05-23T03:44:57.286Z,1010.41
2018-05-23T03:45:57.282Z,1010.38
2018-05-23T03:46:57.278Z,1010.40
2018-05-23T03:47:57.279Z,1010.39
2018-05-23T03:48:57.269Z,1010.34
2018-05-23T03:49:57.271Z,1010.35
2018-05-23T03:50:57.261Z,1010.35
2018-05-23T03:51:57.255Z,1010.34
2018-05-23T03:52:57.252Z,1010.36
2018-05-23T03:53:57.248Z,1010.36
2018-05-23T03:54:57.245Z,1010.37
2018-05-23T03:55:57.241Z,1010.38
2018-05-23T03:56:57.238Z,1010.38
2018-05-23T03:57:57.229Z,1010.40
2018-05-23T03:58:57.224Z,1010.40
2018-05-23T03:59:57.221Z,1010.42
2018-05-23T04:00:57.215Z,1010.45
2018-05-23T04:01:57.212Z,1010.42
2018-05-23T04:02:57.207Z,1010.47
2018-05-23T04:03:57.204Z,1010.46
2018-05-23T04:04:57.195Z,1010.49
2018-05-23T04:05:57.191Z,1010.50
2018-05-23T04:06:57.189Z,1010.47
2018-05-23T04:07:57.184Z,1010.45
2018-05-23T04:08:57.182Z,1010.49
2018-05-23T04:09:57.175Z,1010.54
2018-05-23T04:10:57.173Z,1010.54
2018-05-23T04:11:57.166Z,1010.55
2018-05-23T04:12:57.159Z,1010.61
2018-05-23T04:13:57.155Z,1010.59
2018-05-23T04:14:57.154Z,1010.65
2018-05-23T04:15:57.150Z,1010.63
2018-05-23T04:16:57.145Z,1010.62
2018-05-23T04:17:57.144Z,1010.62
2018-05-23T04:18:57.134Z,1010.65
2018-05-23T04:19:57.131Z,1010.61
2018-05-23T04:20:57.123Z,1010.65
2018-05-23T04:21:57.125Z,1010.63
2018-05-23T04:22:57.117Z,1010.62
2018-05-23T04:23:57.115Z,1010.66
2018-05-23T04:24:57.215Z,1010.66
2018-05-23T04:25:57.103Z,1010.62
2018-05-23T04:26:57.097Z,1010.62
2018-05-23T04:27:57.095Z,1010.64
2018-05-23T04:28:57.093Z,1010.68
2018-05-23T04:29:57.102Z,1010.69
2018-05-23T04:30:57.084Z,1010.65
2018-05-23T04:31:57.080Z,1010.65
2018-05-23T04:32:57.074Z,1010.63
2018-05-23T04:33:57.067Z,1010.66
2018-05-23T04:34:57.078Z,1010.69
2018-05-23T04:35:57.061Z,1010.65
2018-05-23T04:36:57.060Z,1010.68
2018-05-23T04:37:57.053Z,1010.67
2018-05-23T04:38:57.049Z,1010.71
2018-05-23T04:39:57.054Z,1010.71
2018-05-23T04:40:57.036Z,1010.67
2018-05-23T04:41:57.031Z,1010.68
2018-05-23T04:42:57.032Z,1010.72
2018-05-23T04:43:57.046Z,1010.73
2018-05-23T04:44:57.021Z,1010.74
2018-05-23T04:45:57.013Z,1010.80
2018-05-23T04:46:57.015Z,1010.76
2018-05-23T04:47:57.014Z,1010.78
2018-05-23T04:48:57.005Z,1010.84
2018-05-23T04:49:56.998Z,1010.79
2018-05-23T04:50:56.997Z,1010.82
2018-05-23T04:51:56.993Z,1010.83
2018-05-23T04:52:56.989Z,1010.84
2018-05-23T04:53:56.987Z,1010.85
2018-05-23T04:54:56.975Z,1010.84
2018-05-23T04:55:56.987Z,1010.88
2018-05-23T04:56:56.973Z,1010.88
2018-05-23T04:57:56.967Z,1010.89
2018-05-23T04:58:56.966Z,1010.87
2018-05-23T04:59:56.959Z,1010.88
2018-05-23T05:00:56.949Z,1010.89
2018-05-23T05:01:56.947Z,1010.95
2018-05-23T05:02:56.943Z,1010.95
2018-05-23T05:03:56.945Z,1010.99
2018-05-23T05:04:56.939Z,1011.04
2018-05-23T05:05:56.936Z,1011.01
2018-05-23T05:06:56.931Z,1011.02
2018-05-23T05:07:56.955Z,1011.05
2018-05-23T05:08:56.915Z,1011.07
2018-05-23T05:09:56.961Z,1011.08
2018-05-23T05:10:56.913Z,1011.09
2018-05-23T05:11:56.910Z,1011.11
2018-05-23T05:12:56.905Z,1011.12
2018-05-23T05:13:56.900Z,1011.17
2018-05-23T05:14:56.891Z,1011.12
2018-05-23T05:15:56.886Z,1011.15
2018-05-23T05:16:56.887Z,1011.19
2018-05-23T05:17:56.885Z,1011.17
2018-05-23T05:18:56.880Z,1011.23
2018-05-23T05:19:56.878Z,1011.20
2018-05-23T05:20:56.871Z,1011.25
2018-05-23T05:21:56.866Z,1011.25
2018-05-23T05:22:56.864Z,1011.22
2018-05-23T05:23:56.861Z,1011.27
2018-05-23T05:24:56.901Z,1011.26
2018-05-23T05:25:56.851Z,1011.29
2018-05-23T05:26:56.849Z,1011.24
2018-05-23T05:27:56.847Z,1011.29
2018-05-23T05:28:56.836Z,1011.25
2018-05-23T05:29:56.833Z,1011.27
2018-05-23T05:30:56.832Z,1011.31
2018-05-23T05:31:56.826Z,1011.29
2018-05-23T05:32:56.826Z,1011.29
2018-05-23T05:33:56.821Z,1011.32
2018-05-23T05:34:56.817Z,1011.30
2018-05-23T05:35:56.812Z,1011.34
2018-05-23T05:36:56.806Z,1011.34
2018-05-23T05:37:56.803Z,1011.36
2018-05-23T05:38:56.804Z,1011.37
2018-05-23T05:39:56.801Z,1011.39
2018-05-23T05:40:56.803Z,1011.38
2018-05-23T05:41:56.790Z,1011.42
2018-05-23T05:42:56.785Z,1011.42
2018-05-23T05:43:56.779Z,1011.48
2018-05-23T05:44:56.792Z,1011.51
2018-05-23T05:45:56.771Z,1011.48
2018-05-23T05:46:56.862Z,1011.49
2018-05-23T05:47:56.772Z,1011.48
2018-05-23T05:48:56.765Z,1011.48
2018-05-23T05:49:56.768Z,1011.51
2018-05-23T05:50:56.756Z,1011.56
2018-05-23T05:51:56.753Z,1011.54
2018-05-23T05:52:56.750Z,1011.58
2018-05-23T05:53:56.747Z,1011.61
2018-05-23T05:54:56.745Z,1011.65
2018-05-23T05:55:56.746Z,1011.68
2018-05-23T05:56:56.734Z,1011.68
2018-05-23T05:57:56.730Z,1011.73
2018-05-23T05:58:56.728Z,1011.70
2018-05-23T05:59:56.727Z,1011.75
2018-05-23T06:00:56.725Z,1011.77
2018-05-23T06:01:56.774Z,1011.80
2018-05-23T06:02:56.716Z,1011.80
2018-05-23T06:03:56.728Z,1011.83
2018-05-23T06:04:56.721Z,1011.86
2018-05-23T06:05:56.708Z,1011.84
2018-05-23T06:06:56.714Z,1011.83
2018-05-23T06:07:56.753Z,1011.85
2018-05-23T06:08:56.696Z,1011.85
2018-05-23T06:09:56.695Z,1011.85
2018-05-23T06:10:56.691Z,1011.88
2018-05-23T06:11:56.681Z,1011.92
2018-05-23T06:12:56.683Z,1011.93
2018-05-23T06:13:56.681Z,1011.93
2018-05-23T06:14:56.676Z,1011.92
2018-05-23T06:15:56.674Z,1011.96
2018-05-23T06:16:56.670Z,1011.96
2018-05-23T06:17:56.663Z,1011.97
2018-05-23T06:18:56.662Z,1012.02
2018-05-23T06:19:56.666Z,1012.02
2018-05-23T06:20:56.660Z,1012.05
2018-05-23T06:21:56.653Z,1012.04
2018-05-23T06:22:56.726Z,1012.04
2018-05-23T06:23:56.650Z,1012.06
2018-05-23T06:24:56.641Z,1012.07
2018-05-23T06:25:56.635Z,1012.10
2018-05-23T06:26:56.644Z,1012.09
2018-05-23T06:27:56.636Z,1012.11
2018-05-23T06:28:56.635Z,1012.11
2018-05-23T06:29:56.631Z,1012.12
2018-05-23T06:30:56.627Z,1012.10
2018-05-23T06:31:56.621Z,1012.13
2018-05-23T06:32:56.619Z,1012.11
2018-05-23T06:33:56.614Z,1012.11
2018-05-23T06:34:56.615Z,1012.15
2018-05-23T06:35:56.613Z,1012.13
2018-05-23T06:36:56.610Z,1012.11
2018-05-23T06:37:56.607Z,1012.12
2018-05-23T06:38:56.604Z,1012.16
2018-05-23T06:39:56.599Z,1012.16
2018-05-23T06:40:56.608Z,1012.15
2018-05-23T06:41:56.597Z,1012.17
2018-05-23T06:42:56.594Z,1012.21
2018-05-23T06:43:56.594Z,1012.24
2018-05-23T06:44:56.589Z,1012.22
2018-05-23T06:45:56.594Z,1012.24
2018-05-23T06:46:56.581Z,1012.21
2018-05-23T06:47:56.587Z,1012.20
2018-05-23T06:48:56.577Z,1012.25
2018-05-23T06:49:56.669Z,1012.27
2018-05-23T06:50:56.575Z,1012.22
2018-05-23T06:51:56.574Z,1012.27
2018-05-23T06:52:56.566Z,1012.26
2018-05-23T06:53:56.567Z,1012.26
2018-05-23T06:54:56.560Z,1012.28
2018-05-23T06:55:56.558Z,1012.32
2018-05-23T06:56:56.559Z,1012.31
2018-05-23T06:57:56.556Z,1012.34
2018-05-23T06:58:56.555Z,1012.39
2018-05-23T06:59:56.552Z,1012.38
2018-05-23T07:00:56.554Z,1012.42
2018-05-23T07:01:56.546Z,1012.37
2018-05-23T07:02:56.545Z,1012.40
2018-05-23T07:03:56.546Z,1012.39
2018-05-23T07:04:56.542Z,1012.44
2018-05-23T07:05:56.623Z,1012.44
2018-05-23T07:06:56.537Z,1012.42
2018-05-23T07:07:56.534Z,1012.47
2018-05-23T07:08:56.533Z,1012.44
2018-05-23T07:09:56.532Z,1012.48
2018-05-23T07:10:56.530Z,1012.51
2018-05-23T07:11:56.528Z,1012.49
2018-05-23T07:12:56.525Z,1012.49
2018-05-23T07:13:56.522Z,1012.51
2018-05-23T07:14:56.522Z,1012.51
2018-05-23T07:15:56.523Z,1012.55
2018-05-23T07:16:56.519Z,1012.54
2018-05-23T07:17:56.600Z,1012.58
2018-05-23T07:18:56.516Z,1012.57
2018-05-23T07:19:56.513Z,1012.57
2018-05-23T07:20:56.512Z,1012.60
2018-05-23T07:21:56.517Z,1012.61
2018-05-23T07:22:56.509Z,1012.62
2018-05-23T07:23:56.503Z,1012.57
2018-05-23T07:24:56.508Z,1012.58
2018-05-23T07:25:56.514Z,1012.64
2018-05-23T07:26:56.507Z,1012.64
2018-05-23T07:27:56.501Z,1012.62
2018-05-23T07:28:56.494Z,1012.62
2018-05-23T07:29:56.490Z,1012.62
2018-05-23T07:30:56.490Z,1012.64
2018-05-23T07:31:56.501Z,1012.63
2018-05-23T07:32:56.490Z,1012.64
2018-05-23T07:33:56.490Z,1012.69
2018-05-23T07:34:56.487Z,1012.71
2018-05-23T07:35:56.481Z,1012.71
2018-05-23T07:36:56.481Z,1012.67
2018-05-23T07:37:56.481Z,1012.72
2018-05-23T07:38:56.484Z,1012.74
2018-05-23T07:39:56.482Z,1012.74
2018-05-23T07:40:56.479Z,1012.73
2018-05-23T07:41:56.482Z,1012.78
2018-05-23T07:42:56.474Z,1012.75
2018-05-23T07:43:56.473Z,1012.77
2018-05-23T07:44:56.472Z,1012.77
2018-05-23T07:45:56.549Z,1012.78
2018-05-23T07:46:56.476Z,1012.80
2018-05-23T07:47:56.474Z,1012.79
2018-05-23T07:48:56.471Z,1012.78
2018-05-23T07:49:56.469Z,1012.75
2018-05-23T07:50:56.472Z,1012.75
2018-05-23T07:51:56.476Z,1012.78
2018-05-23T07:52:56.471Z,1012.84
2018-05-23T07:53:56.473Z,1012.83
2018-05-23T07:54:56.471Z,1012.84
2018-05-23T07:55:56.471Z,1012.81
2018-05-23T07:56:56.468Z,1012.82
2018-05-23T07:57:56.479Z,1012.83
2018-05-23T07:58:56.469Z,1012.83
2018-05-23T07:59:56.496Z,1012.81
2018-05-23T08:00:56.469Z,1012.82
2018-05-23T08:01:56.477Z,1012.83
2018-05-23T08:02:56.475Z,1012.82
2018-05-23T08:03:56.471Z,1012.82
2018-05-23T08:04:56.470Z,1012.86
2018-05-23T08:05:56.475Z,1012.85
2018-05-23T08:06:56.476Z,1012.87
2018-05-23T08:07:56.475Z,1012.85
2018-05-23T08:08:56.477Z,1012.85
2018-05-23T08:09:56.476Z,1012.85
2018-05-23T08:10:56.479Z,1012.88
2018-05-23T08:11:56.477Z,1012.87
2018-05-23T08:12:56.481Z,1012.82
2018-05-23T08:13:56.481Z,1012.87
2018-05-23T08:14:56.483Z,1012.85
2018-05-23T08:15:56.489Z,1012.87
2018-05-23T08:16:56.481Z,1012.85
2018-05-23T08:17:56.500Z,1012.83
2018-05-23T08:18:56.489Z,1012.86
2018-05-23T08:19:56.489Z,1012.90
2018-05-23T08:20:56.491Z,1012.91
2018-05-23T08:21:56.490Z,1012.91
2018-05-23T08:22:56.490Z,1012.89
2018-05-23T08:23:56.496Z,1012.89
2018-05-23T08:24:56.491Z,1012.92
2018-05-23T08:25:56.495Z,1012.92
2018-05-23T08:26:56.497Z,1012.92
2018-05-23T08:27:56.498Z,1012.95
2018-05-23T08:28:56.500Z,1012.94
2018-05-23T08:29:56.502Z,1012.97
2018-05-23T08:30:56.498Z,1012.98
2018-05-23T08:31:56.501Z,1013.03
2018-05-23T08:32:56.503Z,1013.01
2018-05-23T08:33:56.501Z,1012.98
2018-05-23T08:34:56.509Z,1012.99
2018-05-23T08:35:56.510Z,1013.03
2018-05-23T08:36:56.509Z,1013.00
2018-05-23T08:37:56.510Z,1013.01
2018-05-23T08:38:56.510Z,1013.07
2018-05-23T08:39:56.511Z,1013.01
2018-05-23T08:40:56.521Z,1013.05
2018-05-23T08:41:56.521Z,1013.04
2018-05-23T08:42:56.522Z,1013.04
2018-05-23T08:43:56.519Z,1013.02
2018-05-23T08:44:56.522Z,1013.06
2018-05-23T08:45:56.644Z,1013.06
2018-05-23T08:46:56.534Z,1013.04
2018-05-23T08:47:56.530Z,1013.05
2018-05-23T08:48:56.532Z,1013.04
2018-05-23T08:49:56.533Z,1013.05
2018-05-23T08:50:56.530Z,1013.08
2018-05-23T08:51:56.532Z,1013.07
2018-05-23T08:52:56.533Z,1013.08
2018-05-23T08:53:56.533Z,1013.09
2018-05-23T08:54:56.541Z,1013.08
2018-05-23T08:55:56.540Z,1013.05
2018-05-23T08:56:56.544Z,1013.11
2018-05-23T08:57:56.538Z,1013.11
2018-05-23T08:58:56.559Z,1013.13
2018-05-23T08:59:56.547Z,1013.12
2018-05-23T09:00:56.547Z,1013.17
2018-05-23T09:01:56.553Z,1013.14
2018-05-23T09:02:56.548Z,1013.13
2018-05-23T09:03:56.549Z,1013.19
2018-05-23T09:04:56.638Z,1013.13
2018-05-23T09:05:56.552Z,1013.20
2018-05-23T09:06:57.258Z,1013.14
2018-05-23T09:07:56.551Z,1013.14
2018-05-23T09:08:56.557Z,1013.15
2018-05-23T09:09:56.556Z,1013.18
2018-05-23T09:10:56.554Z,1013.17
2018-05-23T09:11:56.553Z,1013.19
2018-05-23T09:12:56.552Z,1013.18
2018-05-23T09:13:56.568Z,1013.19
2018-05-23T09:14:56.575Z,1013.27
2018-05-23T09:15:56.559Z,1013.29
2018-05-23T09:16:56.556Z,1013.29
2018-05-23T09:17:56.577Z,1013.29
2018-05-23T09:18:56.557Z,1013.32
2018-05-23T09:19:56.561Z,1013.20
2018-05-23T09:20:56.561Z,1013.31
2018-05-23T09:21:56.564Z,1013.32
2018-05-23T09:22:56.566Z,1013.32
2018-05-23T09:23:56.568Z,1013.35
2018-05-23T09:24:56.566Z,1013.34
2018-05-23T09:25:56.566Z,1013.41
2018-05-23T09:26:56.572Z,1013.37
2018-05-23T09:27:56.598Z,1013.42
2018-05-23T09:28:56.575Z,1013.42
2018-05-23T09:29:56.589Z,1013.42
2018-05-23T09:30:56.575Z,1013.44
2018-05-23T09:31:56.576Z,1013.43
2018-05-23T09:32:56.581Z,1013.43
2018-05-23T09:33:56.587Z,1013.48
2018-05-23T09:34:56.586Z,1013.49
2018-05-23T09:35:56.589Z,1013.48
2018-05-23T09:36:56.589Z,1013.48
2018-05-23T09:37:56.595Z,1013.45
2018-05-23T09:38:56.595Z,1013.48
2018-05-23T09:39:56.604Z,1013.52
2018-05-23T09:40:56.608Z,1013.52
2018-05-23T09:41:56.611Z,1013.54
2018-05-23T09:42:56.615Z,1013.49
2018-05-23T09:43:56.616Z,1013.54
2018-05-23T09:44:56.619Z,1013.55
2018-05-23T09:45:56.622Z,1013.55
2018-05-23T09:46:56.623Z,1013.53
2018-05-23T09:47:56.628Z,1013.53
2018-05-23T09:48:56.638Z,1013.58
2018-05-23T09:49:56.642Z,1013.59
2018-05-23T09:50:56.640Z,1013.67
2018-05-23T09:51:56.646Z,1013.64
2018-05-23T09:52:56.648Z,1013.66
2018-05-23T09:53:56.651Z,1013.67
2018-05-23T09:54:56.728Z,1013.68
2018-05-23T09:55:56.671Z,1013.70
2018-05-23T09:56:56.671Z,1013.68
2018-05-23T09:57:56.681Z,1013.68
2018-05-23T09:58:56.679Z,1013.69
2018-05-23T09:59:56.686Z,1013.68
2018-05-23T10:00:56.685Z,1013.71
2018-05-23T10:01:56.691Z,1013.69
2018-05-23T10:02:56.692Z,1013.71
2018-05-23T10:03:56.697Z,1013.73
2018-05-23T10:04:56.704Z,1013.74
2018-05-23T10:05:56.707Z,1013.74
2018-05-23T10:06:56.716Z,1013.75
2018-05-23T10:07:56.720Z,1013.80
2018-05-23T10:08:56.724Z,1013.78
2018-05-23T10:09:56.727Z,1013.77
2018-05-23T10:10:56.737Z,1013.77
2018-05-23T10:11:56.750Z,1013.75
2018-05-23T10:12:56.750Z,1013.80
2018-05-23T10:13:56.746Z,1013.83
2018-05-23T10:14:56.750Z,1013.81
2018-05-23T10:15:56.759Z,1013.89
2018-05-23T10:16:56.770Z,1013.84
2018-05-23T10:17:56.774Z,1013.85
2018-05-23T10:18:56.775Z,1013.83
2018-05-23T10:19:56.776Z,1013.82
2018-05-23T10:20:56.778Z,1013.87
2018-05-23T10:21:56.785Z,1013.89
2018-05-23T10:22:56.794Z,1013.89
2018-05-23T10:23:56.797Z,1013.92
2018-05-23T10:24:56.803Z,1013.92
2018-05-23T10:25:56.833Z,1013.96
2018-05-23T10:26:56.810Z,1013.97
2018-05-23T10:27:56.814Z,1013.99
2018-05-23T10:28:56.820Z,1013.97
2018-05-23T10:29:56.827Z,1013.96
2018-05-23T10:30:56.830Z,1013.97
2018-05-23T10:31:56.840Z,1013.95
2018-05-23T10:32:56.843Z,1013.95
2018-05-23T10:33:56.845Z,1013.91
2018-05-23T10:34:56.846Z,1013.90
2018-05-23T10:35:56.852Z,1013.92
2018-05-23T10:36:56.860Z,1013.93
2018-05-23T10:37:56.866Z,1013.90
2018-05-23T10:38:56.877Z,1014.01
2018-05-23T10:39:56.873Z,1013.92
2018-05-23T10:40:56.871Z,1014.02
2018-05-23T10:41:56.878Z,1013.99
2018-05-23T10:42:56.948Z,1013.99
2018-05-23T10:43:56.887Z,1013.98
2018-05-23T10:44:56.891Z,1014.00
2018-05-23T10:45:56.889Z,1014.01
2018-05-23T10:46:56.894Z,1014.03
2018-05-23T10:47:56.898Z,1014.01
2018-05-23T10:48:56.900Z,1014.09
2018-05-23T10:49:56.907Z,1014.08
2018-05-23T10:50:56.908Z,1014.09
2018-05-23T10:51:56.950Z,1014.08
2018-05-23T10:52:56.917Z,1014.13
2018-05-23T10:53:56.912Z,1014.14
2018-05-23T10:54:56.916Z,1014.11
2018-05-23T10:55:56.921Z,1014.17
2018-05-23T10:56:56.926Z,1014.17
2018-05-23T10:57:56.924Z,1014.18
2018-05-23T10:58:56.928Z,1014.15
2018-05-23T10:59:56.932Z,1014.16
2018-05-23T11:00:56.931Z,1014.17
2018-05-23T11:01:56.942Z,1014.23
2018-05-23T11:02:57.011Z,1014.16
2018-05-23T11:03:56.964Z,1014.13
2018-05-23T11:04:56.947Z,1014.18
2018-05-23T11:05:57.033Z,1014.17
2018-05-23T11:06:56.959Z,1014.19
2018-05-23T11:07:56.951Z,1014.20
2018-05-23T11:08:56.956Z,1014.18
2018-05-23T11:09:56.956Z,1014.19
2018-05-23T11:10:56.960Z,1014.18
2018-05-23T11:11:56.963Z,1014.17
2018-05-23T11:12:56.957Z,1014.16
2018-05-23T11:13:56.961Z,1014.15
2018-05-23T11:14:56.987Z,1014.20
2018-05-23T11:15:56.966Z,1014.23
2018-05-23T11:16:56.988Z,1014.20
2018-05-23T11:17:56.967Z,1014.22
2018-05-23T11:18:56.978Z,1014.26
2018-05-23T11:19:56.972Z,1014.23
2018-05-23T11:20:56.971Z,1014.29
2018-05-23T11:21:56.972Z,1014.31
2018-05-23T11:22:56.976Z,1014.27
2018-05-23T11:23:56.974Z,1014.27
2018-05-23T11:24:56.977Z,1014.32
2018-05-23T11:25:56.986Z,1014.31
2018-05-23T11:26:56.981Z,1014.30
2018-05-23T11:27:56.985Z,1014.31
2018-05-23T11:28:56.979Z,1014.28
2018-05-23T11:29:56.984Z,1014.32
2018-05-23T11:30:56.984Z,1014.33
2018-05-23T11:31:56.987Z,1014.33
2018-05-23T11:32:56.986Z,1014.30
2018-05-23T11:33:56.991Z,1014.30
2018-05-23T11:34:56.986Z,1014.35
2018-05-23T11:35:56.987Z,1014.29
2018-05-23T11:36:56.986Z,1014.30
2018-05-23T11:37:56.990Z,1014.31
2018-05-23T11:38:56.994Z,1014.33
2018-05-23T11:39:56.995Z,1014.34
2018-05-23T11:40:56.994Z,1014.33
2018-05-23T11:41:56.993Z,1014.31
2018-05-23T11:42:57.000Z,1014.33
2018-05-23T11:43:56.994Z,1014.33
2018-05-23T11:44:56.993Z,1014.34
2018-05-23T11:45:57.000Z,1014.34
2018-05-23T11:46:57.003Z,1014.39
2018-05-23T11:47:57.000Z,1014.38
2018-05-23T11:48:57.003Z,1014.31
2018-05-23T11:49:56.998Z,1014.36
2018-05-23T11:50:57.018Z,1014.42
2018-05-23T11:51:57.005Z,1014.37
2018-05-23T11:52:57.014Z,1014.37
2018-05-23T11:53:57.007Z,1014.35
2018-05-23T11:54:57.008Z,1014.36
2018-05-23T11:55:57.005Z,1014.35
2018-05-23T11:56:57.005Z,1014.36
2018-05-23T11:57:57.008Z,1014.34
2018-05-23T11:58:57.020Z,1014.34
2018-05-23T11:59:57.013Z,1014.32
2018-05-23T12:00:57.016Z,1014.29
2018-05-23T12:01:57.136Z,1014.33
2018-05-23T12:02:57.010Z,1014.32
2018-05-23T12:03:57.021Z,1014.33
2018-05-23T12:04:57.017Z,1014.33
2018-05-23T12:05:57.014Z,1014.32